Terminal Aerodrome Forecast
Issued by NWS

Home | Current Version | Previous Version | Text Only | Print | Product List | Glossary On
Versions: 1 2 3 4 5 6 7 8 9 10 11 12
000
FTUS45 KGGW 231733
TAFSDY
TAF
KSDY 231733Z 2318/2418 05011KT P6SM SCT015 OVC025
      TEMPO 2318/2321 5SM -SHSN BR BKN015
     FM240400 05006KT P6SM SCT025 OVC035=

USA.gov is the U.S. government's official web portal to all federal, state and local government web resources and services.